Hauptseite
METAR-TAF:

METAR-TAF

Flughäfen :

Bohrplattform

Ekofisk, Norwegen

Breite: 56-33N, Länge: 003-15E, Höhe: 3 m

Beobachtung

Neuester Wetterbericht von vor 39 Minuten, um 02:20 UTC
Wind 15 kt aus West/Nordwest
Temperatur 10°C
Luftfeuchtigkeit 87%
Luftdruck 1030 hPa
Sichtweite 10 km oder mehr
Durchbrochene Bewölkung in der Höhe von 3700 ft

METAR: ENLE 250220Z 29015KT 9999 BKN037 10/08 Q1030 W10/S4

Zeit: 04:59 (02:59 UTC)

Prognose

Neuester Wetterbericht von vor 59 Minuten, um 02:00 UTC
Gültige Prognose vom 25 um 03 UTC bis 25 um 12 UTC
Wind 20 kt aus West/Nordwest
Sichtweite 10 km oder mehr
Leicht bewölkt in der Höhe von 1500 ft
Durchbrochene Bewölkung in der Höhe von 4000 ft
Übergehend zu
vom 25 um 04 UTC bis 25 um 06 UTC
Wind 8 kt aus West/Nordwest

TAF: ENLE 250200Z 2503/2512 29020KT 9999 FEW015 BKN040 BECMG 2504/2506 29008KT

Wetterbeobachtungen und Prognosen von mehr als 4000 Flughäfen (METAR und TAF Bericht).

Die verfügbaren Stationen werden durch gelbe und rote Markierungen auf der Karte dargestellt.

Führen Sie die Maus auf sie, um den Namen der Station zu sehen.

Darauf klicken, um die Beobachtung von Wetterbeobachtungen und Prognosen zu sehen.

Um die Karte zu ändern : klicken Sie auf den grünen Tasten mit einem schwarzen Kreuz Zum Vergrößern, auf den grünen Button mit einem Gedankenstrich zu verkleinern, oder auf die grünen Pfeile für benachbarte Karten.


METAR-TAF: